^^
Datos históricos de la estación: Murcia-Puente Tocinos
Diario Informe para Febrero 1, 2019 Unidades:  Métrico    Inglés   Ambas
Diario Semanal Mensual Anual Configurable
  Máximo: Mínimo: Media:
Temperatura: 20.1 °C 12.5 °C 17.1 °C
Punto de rocio: 10.3 °C -2.6 °C 5 °C
Humedad: 65% 24% 46%
Velocidad viento: 29.1km/h 5.0km/h 16.1km/h
Racha viento: 53.7km/h - -
Viento- - SW
Presión: 1000.6 hPa 993.8 hPa -
Precipitación: 0.0 mm    
Historical Graphs
 
 
Tabla de datos para Febrero 1, 2019
Hora Temperatura Punto de rocio Presión Viento Velocidad viento Racha viento Humedad Intensidad lluvia(por hora) Nubes
00:05 17.8 °C 6.6 °C 1000.6 hPa SW 13.0 km/h 22.5 km/h 48% 0.0 mm CLR
00:09 17.9 °C 6.4 °C 1000.6 hPa SSW 14.8 km/h 25.6 km/h 47% 0.0 mm CLR
00:15 17.9 °C 6.4 °C 1000.6 hPa SSW 14.8 km/h 25.9 km/h 47% 0.0 mm CLR
00:20 17.9 °C 6.7 °C 1000.4 hPa SSW 15.6 km/h 25.9 km/h 48% 0.0 mm CLR
00:25 17.9 °C 6.7 °C 1000.4 hPa SSW 15.6 km/h 22.2 km/h 48% 0.0 mm CLR
00:30 18.0 °C 6.8 °C 1000.4 hPa SSW 14.5 km/h 22.5 km/h 48% 0.0 mm CLR
00:35 17.9 °C 6.7 °C 1000.1 hPa SSW 14.5 km/h 20.9 km/h 48% 0.0 mm CLR
00:40 17.9 °C 6.7 °C 1000.1 hPa SSW 9.7 km/h 19.3 km/h 48% 0.0 mm CLR
00:45 17.8 °C 6.6 °C 1000.1 hPa SW 10.0 km/h 13.0 km/h 48% 0.0 mm CLR
00:50 17.8 °C 6.9 °C 999.9 hPa SSW 6.9 km/h 18.5 km/h 49% 0.0 mm CLR
00:55 17.9 °C 6.7 °C 999.9 hPa SW 6.9 km/h 27.8 km/h 48% 0.0 mm CLR
01:00 18.1 °C 7.2 °C 999.9 hPa SW 16.1 km/h 33.8 km/h 49% 0.0 mm CLR
01:05 18.1 °C 7.2 °C 999.6 hPa SSW 16.1 km/h 27.8 km/h 49% 0.0 mm CLR
01:10 18.1 °C 7.2 °C 999.6 hPa SW 18.0 km/h 33.3 km/h 49% 0.0 mm CLR
01:15 18.1 °C 7.2 °C 999.6 hPa WSW 18.0 km/h 25.9 km/h 49% 0.0 mm CLR
01:20 18.1 °C 7.2 °C 999.5 hPa SW 19.3 km/h 27.4 km/h 49% 0.0 mm CLR
01:25 18.0 °C 7.1 °C 999.5 hPa WSW 18.0 km/h 16.7 km/h 49% 0.0 mm CLR
01:30 17.9 °C 7.3 °C 999.5 hPa SSW 12.2 km/h 14.8 km/h 50% 0.0 mm CLR
01:35 17.9 °C 7.3 °C 999.3 hPa SW 12.9 km/h 20.9 km/h 50% 0.0 mm CLR
01:40 18.1 °C 7.2 °C 999.3 hPa SSW 11.3 km/h 25.7 km/h 49% 0.0 mm CLR
01:45 18.3 °C 7.4 °C 999.3 hPa SW 11.9 km/h 24.1 km/h 49% 0.0 mm CLR
01:50 18.4 °C 7.2 °C 999.1 hPa SSW 15.6 km/h 20.4 km/h 48% 0.0 mm CLR
01:55 18.4 °C 7.2 °C 999.1 hPa SW 15.6 km/h 13.0 km/h 48% 0.0 mm CLR
02:00 18.3 °C 7.1 °C 999.1 hPa SSW 11.3 km/h 35.4 km/h 48% 0.0 mm CLR
02:05 18.4 °C 6.9 °C 998.9 hPa SSW 10.3 km/h 24.1 km/h 47% 0.0 mm CLR
02:10 18.5 °C 6.9 °C 998.9 hPa SSW 14.0 km/h 25.9 km/h 47% 0.0 mm CLR
02:15 18.6 °C 6.7 °C 998.9 hPa SSW 14.0 km/h 25.9 km/h 46% 0.0 mm CLR
02:20 18.7 °C 6.5 °C 998.9 hPa SW 20.9 km/h 27.8 km/h 45% 0.0 mm CLR
02:25 18.6 °C 6.4 °C 998.9 hPa SSW 20.9 km/h 37.0 km/h 45% 0.0 mm CLR
02:30 18.7 °C 6.5 °C 998.9 hPa SSE 19.8 km/h 33.3 km/h 45% 0.0 mm CLR
02:35 18.7 °C 6.2 °C 998.5 hPa SSW 20.9 km/h 33.8 km/h 44% 0.0 mm CLR
02:40 18.7 °C 6.2 °C 998.5 hPa SSW 16.1 km/h 20.4 km/h 44% 0.0 mm CLR
02:45 18.8 °C 6.3 °C 998.5 hPa South 16.1 km/h 14.8 km/h 44% 0.0 mm CLR
02:50 18.8 °C 6.3 °C 998.2 hPa SE 13.0 km/h 24.1 km/h 44% 0.0 mm CLR
02:55 18.8 °C 6.3 °C 998.2 hPa SSE 13.0 km/h 24.1 km/h 44% 0.0 mm CLR
03:00 18.8 °C 6.3 °C 998.2 hPa South 14.5 km/h 27.4 km/h 44% 0.0 mm CLR
03:05 18.8 °C 6.3 °C 997.9 hPa South 14.5 km/h 33.8 km/h 44% 0.0 mm CLR
03:10 18.7 °C 6.2 °C 997.9 hPa South 16.1 km/h 32.2 km/h 44% 0.0 mm CLR
03:15 18.7 °C 6.2 °C 997.9 hPa South 17.2 km/h 33.3 km/h 44% 0.0 mm CLR
03:20 18.7 °C 6.2 °C 997.8 hPa South 22.5 km/h 40.2 km/h 44% 0.0 mm CLR
03:25 18.6 °C 6.4 °C 997.8 hPa SSW 22.0 km/h 27.8 km/h 45% 0.0 mm CLR
03:30 18.6 °C 6.4 °C 997.8 hPa SSW 19.0 km/h 27.8 km/h 45% 0.0 mm CLR
03:35 18.5 °C 6.3 °C 997.7 hPa South 19.3 km/h 27.4 km/h 45% 0.0 mm CLR
03:40 18.4 °C 6.2 °C 997.7 hPa South 16.4 km/h 25.9 km/h 45% 0.0 mm CLR
03:45 18.4 °C 6.2 °C 997.7 hPa South 16.1 km/h 25.7 km/h 45% 0.0 mm CLR
03:50 18.3 °C 6.2 °C 997.3 hPa SSW 15.6 km/h 20.4 km/h 45% 0.0 mm CLR
03:55 18.3 °C 6.2 °C 997.3 hPa South 15.6 km/h 29.6 km/h 45% 0.0 mm CLR
04:00 18.4 °C 6.2 °C 997.3 hPa SSW 19.3 km/h 33.8 km/h 45% 0.0 mm CLR
04:05 18.5 °C 6.0 °C 997.2 hPa SW 18.3 km/h 29.6 km/h 44% 0.0 mm CLR
04:10 18.5 °C 6.0 °C 997.2 hPa South 20.1 km/h 20.4 km/h 44% 0.0 mm CLR
04:15 18.5 °C 6.0 °C 997.2 hPa SW 20.1 km/h 27.8 km/h 44% 0.0 mm CLR
04:20 18.4 °C 6.2 °C 997.0 hPa SW 16.4 km/h 20.4 km/h 45% 0.0 mm CLR
04:25 18.4 °C 6.2 °C 997.0 hPa SW 16.4 km/h 27.8 km/h 45% 0.0 mm CLR
04:30 18.3 °C 6.5 °C 997.0 hPa SSW 18.0 km/h 33.5 km/h 46% 0.0 mm CLR
04:35 17.8 °C 7.2 °C 996.9 hPa SSW 18.0 km/h 29.6 km/h 50% 0.0 mm CLR
04:40 17.2 °C 7.8 °C 996.9 hPa South 21.7 km/h 33.3 km/h 54% 0.0 mm CLR
04:45 16.9 °C 8.1 °C 996.9 hPa SSW 21.7 km/h 24.1 km/h 56% 0.0 mm CLR
04:50 16.8 °C 7.9 °C 996.6 hPa South 22.5 km/h 27.4 km/h 56% 0.0 mm CLR
04:55 16.8 °C 7.9 °C 996.6 hPa South 22.5 km/h 18.5 km/h 56% 0.0 mm CLR
04:59 16.8 °C 7.7 °C 996.6 hPa SE 16.1 km/h 29.6 km/h 55% 0.0 mm CLR
05:05 16.8 °C 7.7 °C 996.4 hPa SSE 16.1 km/h 22.2 km/h 55% 0.0 mm CLR
05:10 16.9 °C 7.5 °C 996.4 hPa SE 15.6 km/h 16.7 km/h 54% 0.0 mm CLR
05:15 16.9 °C 7.3 °C 996.4 hPa SSE 14.5 km/h 20.9 km/h 53% 0.0 mm CLR
05:20 17.1 °C 7.2 °C 995.8 hPa SE 13.0 km/h 20.4 km/h 52% 0.0 mm FEW
05:25 17.2 °C 7.3 °C 995.8 hPa SE 13.0 km/h 11.1 km/h 52% 0.0 mm FEW
05:30 17.3 °C 7.1 °C 995.8 hPa SE 11.3 km/h 12.9 km/h 51% 0.0 mm FEW
05:35 17.4 °C 7.4 °C 995.7 hPa ESE 10.3 km/h 11.1 km/h 52% 0.0 mm FEW
05:40 17.2 °C 8.1 °C 995.7 hPa ESE 8.0 km/h 11.3 km/h 55% 0.0 mm FEW
05:45 16.7 °C 8.1 °C 995.7 hPa East 6.9 km/h 5.6 km/h 57% 0.0 mm FEW
05:50 16.4 °C 8.1 °C 995.5 hPa SSE 5.0 km/h 9.5 km/h 58% 0.0 mm CLR
05:55 16.3 °C 7.8 °C 995.5 hPa SW 5.0 km/h 14.8 km/h 57% 0.0 mm CLR
06:00 16.5 °C 7.4 °C 995.5 hPa South 9.7 km/h 19.3 km/h 55% 0.0 mm CLR
06:05 16.7 °C 7.1 °C 995.2 hPa SSW 8.7 km/h 16.7 km/h 53% 0.0 mm CLR
06:10 16.8 °C 7.4 °C 995.2 hPa South 11.1 km/h 22.2 km/h 54% 0.0 mm CLR
06:15 16.8 °C 7.7 °C 995.2 hPa South 11.1 km/h 25.9 km/h 55% 0.0 mm CLR
06:20 16.8 °C 7.7 °C 995.1 hPa South 16.4 km/h 22.2 km/h 55% 0.0 mm BKN
06:25 16.7 °C 7.9 °C 995.1 hPa South 16.4 km/h 25.9 km/h 56% 0.0 mm BKN
06:30 16.7 °C 7.9 °C 995.1 hPa South 18.0 km/h 29.6 km/h 56% 0.0 mm BKN
06:35 16.7 °C 7.9 °C 994.7 hPa SSW 18.0 km/h 24.1 km/h 56% 0.0 mm BKN
06:40 16.7 °C 7.9 °C 994.7 hPa South 16.4 km/h 25.9 km/h 56% 0.0 mm BKN
06:45 16.7 °C 8.1 °C 994.7 hPa South 16.4 km/h 25.9 km/h 57% 0.0 mm BKN
06:50 16.6 °C 8.3 °C 994.4 hPa SSW 16.4 km/h 29.6 km/h 58% 0.0 mm FEW
06:55 16.5 °C 8.2 °C 994.4 hPa SW 16.4 km/h 25.9 km/h 58% 0.0 mm FEW
07:00 16.4 °C 8.1 °C 994.4 hPa South 22.5 km/h 33.8 km/h 58% 0.0 mm FEW
07:05 16.4 °C 8.4 °C 994.5 hPa South 21.7 km/h 25.1 km/h 59% 0.0 mm FEW
07:10 16.3 °C 8.3 °C 994.5 hPa South 19.8 km/h 20.4 km/h 59% 0.0 mm FEW
07:15 16.3 °C 8.3 °C 994.5 hPa SSW 19.8 km/h 18.5 km/h 59% 0.0 mm FEW
07:20 16.2 °C 8.2 °C 994.5 hPa SSW 14.0 km/h 20.9 km/h 59% 0.0 mm CLR
07:25 16.4 °C 8.1 °C 994.5 hPa SSW 14.0 km/h 18.5 km/h 58% 0.0 mm CLR
07:30 16.4 °C 8.1 °C 994.5 hPa SSW 11.9 km/h 14.8 km/h 58% 0.0 mm CLR
07:35 16.4 °C 8.2 °C 994.3 hPa SSW 11.3 km/h 20.9 km/h 58% 0.0 mm CLR
07:40 16.5 °C 8.2 °C 994.3 hPa SSW 12.2 km/h 18.5 km/h 58% 0.0 mm CLR
07:45 16.6 °C 8.3 °C 994.3 hPa SSW 12.2 km/h 22.2 km/h 58% 0.0 mm CLR
07:50 16.5 °C 8.2 °C 994.3 hPa SW 13.0 km/h 13.7 km/h 58% 0.0 mm CLR
07:55 16.5 °C 8.2 °C 994.3 hPa SW 13.0 km/h 14.8 km/h 58% 0.0 mm CLR
08:00 16.5 °C 8.4 °C 994.3 hPa SSW 11.3 km/h 22.5 km/h 59% 0.0 mm CLR
08:05 16.5 °C 8.9 °C 994.4 hPa South 11.9 km/h 27.8 km/h 61% 0.0 mm CLR
08:10 16.4 °C 9.1 °C 994.4 hPa SSW 17.2 km/h 22.5 km/h 62% 0.0 mm CLR
08:15 16.3 °C 9.0 °C 994.4 hPa SW 17.2 km/h 14.8 km/h 62% 0.0 mm CLR
08:20 16.3 °C 9.0 °C 994.3 hPa South 14.0 km/h 20.4 km/h 62% 0.0 mm CLR
08:25 16.2 °C 9.2 °C 994.3 hPa SSW 14.0 km/h 16.7 km/h 63% 0.0 mm CLR
08:30 16.2 °C 9.2 °C 994.3 hPa SSW 12.2 km/h 14.8 km/h 63% 0.0 mm CLR
08:35 16.2 °C 9.2 °C 994.5 hPa SSW 12.2 km/h 16.7 km/h 63% 0.0 mm CLR
08:40 16.2 °C 9.2 °C 994.5 hPa SW 12.2 km/h 18.5 km/h 63% 0.0 mm CLR
08:45 16.2 °C 9.2 °C 994.5 hPa SSW 12.2 km/h 14.8 km/h 63% 0.0 mm CLR
08:50 16.3 °C 9.2 °C 994.5 hPa SW 12.2 km/h 17.2 km/h 63% 0.0 mm FEW
08:55 16.3 °C 9.2 °C 994.5 hPa SSW 12.2 km/h 13.0 km/h 63% 0.0 mm FEW
09:00 16.2 °C 9.2 °C 994.5 hPa SSW 11.3 km/h 14.5 km/h 63% 0.0 mm FEW
09:05 16.3 °C 9.0 °C 994.5 hPa SW 10.3 km/h 13.0 km/h 62% 0.0 mm FEW
09:10 16.3 °C 8.8 °C 994.5 hPa South 9.5 km/h 19.8 km/h 61% 0.0 mm FEW
09:15 16.4 °C 8.6 °C 994.5 hPa SW 9.5 km/h 18.5 km/h 60% 0.0 mm FEW
09:20 16.5 °C 8.7 °C 994.9 hPa SSW 11.1 km/h 18.5 km/h 60% 0.0 mm FEW
09:25 16.5 °C 8.9 °C 994.9 hPa WSW 11.1 km/h 16.7 km/h 61% 0.0 mm FEW
09:30 16.4 °C 9.1 °C 994.9 hPa WSW 13.0 km/h 24.1 km/h 62% 0.0 mm FEW
09:35 16.3 °C 9.5 °C 995.0 hPa WSW 13.0 km/h 16.4 km/h 64% 0.0 mm FEW
09:40 16.2 °C 9.4 °C 995.0 hPa SSW 11.9 km/h 20.4 km/h 64% 0.0 mm FEW
09:45 16.2 °C 9.6 °C 995.0 hPa SW 11.3 km/h 20.9 km/h 65% 0.0 mm FEW
09:50 16.3 °C 9.7 °C 994.9 hPa SW 10.3 km/h 11.1 km/h 65% 0.0 mm -RA
09:55 16.3 °C 9.5 °C 994.9 hPa SSW 10.3 km/h 14.8 km/h 64% 0.0 mm -RA
10:00 16.4 °C 9.6 °C 994.9 hPa SSW 9.7 km/h 16.1 km/h 64% 0.0 mm -RA
10:05 16.7 °C 9.6 °C 994.0 hPa SSW 10.0 km/h 13.0 km/h 63% 0.0 mm -RA
10:10 16.9 °C 9.6 °C 994.0 hPa SSW 8.7 km/h 11.9 km/h 62% 0.0 mm -RA
10:15 17.2 °C 9.8 °C 994.0 hPa SW 8.7 km/h 13.0 km/h 62% 0.0 mm -RA
10:20 17.4 °C 9.8 °C 994.1 hPa WSW 7.6 km/h 7.4 km/h 61% 0.0 mm -RA
10:25 17.6 °C 9.7 °C 994.1 hPa WSW 7.6 km/h 13.0 km/h 60% 0.0 mm -RA
10:30 17.8 °C 9.9 °C 994.1 hPa WSW 6.9 km/h 13.0 km/h 60% 0.0 mm -RA
10:35 17.9 °C 10.0 °C 994.2 hPa SW 6.9 km/h 9.3 km/h 60% 0.0 mm FEW
10:40 18.1 °C 9.9 °C 994.2 hPa South 6.4 km/h 7.4 km/h 59% 0.0 mm FEW
10:45 18.3 °C 9.9 °C 994.2 hPa WSW 6.4 km/h 11.1 km/h 58% 0.0 mm FEW
10:50 18.4 °C 10.0 °C 994.2 hPa South 6.4 km/h 9.3 km/h 58% 0.0 mm FEW
10:55 18.7 °C 10.0 °C 994.2 hPa SSW 6.4 km/h 13.0 km/h 57% 0.0 mm FEW
11:00 18.8 °C 10.1 °C 994.2 hPa SW 8.0 km/h 12.9 km/h 57% 0.0 mm FEW
11:05 19.1 °C 10.1 °C 994.3 hPa SSW 6.9 km/h 11.1 km/h 56% 0.0 mm FEW
11:10 19.3 °C 10.1 °C 994.3 hPa SW 6.9 km/h 11.1 km/h 55% 0.0 mm FEW
11:15 19.4 °C 9.6 °C 994.3 hPa SSE 6.9 km/h 18.5 km/h 53% 0.0 mm FEW
11:20 19.2 °C 9.9 °C 994.6 hPa SSE 10.3 km/h 20.4 km/h 55% 0.0 mm FEW
11:25 19.0 °C 10.0 °C 994.6 hPa SW 10.3 km/h 18.5 km/h 56% 0.0 mm FEW
11:30 19.0 °C 10.0 °C 994.6 hPa South 11.1 km/h 7.4 km/h 56% 0.0 mm FEW
11:35 19.0 °C 10.3 °C 994.4 hPa SSW 11.1 km/h 9.3 km/h 57% 0.0 mm FEW
11:40 19.2 °C 9.1 °C 994.4 hPa WSW 6.9 km/h 24.1 km/h 52% 0.0 mm FEW
11:45 19.4 °C 8.7 °C 994.4 hPa SSW 6.9 km/h 31.5 km/h 50% 0.0 mm FEW
11:50 19.7 °C 9.0 °C 994.4 hPa WSW 16.4 km/h 25.9 km/h 50% 0.0 mm FEW
11:55 19.9 °C 8.9 °C 994.4 hPa WSW 16.4 km/h 22.2 km/h 49% 0.0 mm FEW
12:00 20.1 °C 8.4 °C 994.4 hPa SW 14.5 km/h 29.0 km/h 47% 0.0 mm FEW
12:05 20.1 °C 8.4 °C 994.2 hPa SSW 14.8 km/h 35.2 km/h 47% 0.0 mm FEW
12:10 20.1 °C 8.4 °C 994.2 hPa SW 17.2 km/h 18.5 km/h 47% 0.0 mm FEW
12:15 19.8 °C 9.7 °C 994.2 hPa WNW 17.2 km/h 27.8 km/h 52% 0.0 mm FEW
12:20 18.8 °C 9.3 °C 994.6 hPa NW 18.3 km/h 29.6 km/h 54% 0.0 mm FEW
12:25 18.2 °C 9.3 °C 994.6 hPa NW 18.3 km/h 20.4 km/h 56% 0.0 mm FEW
12:30 18.0 °C 9.1 °C 994.6 hPa NNW 18.0 km/h 35.2 km/h 56% 0.0 mm FEW
12:35 18.0 °C 9.1 °C 994.5 hPa NW 18.0 km/h 14.0 km/h 56% 0.0 mm FEW
12:40 18.0 °C 9.1 °C 994.5 hPa NW 14.0 km/h 24.1 km/h 56% 0.0 mm FEW
12:45 17.9 °C 9.0 °C 994.5 hPa NW 14.0 km/h 18.5 km/h 56% 0.0 mm FEW
12:50 18.0 °C 8.8 °C 994.6 hPa West 13.7 km/h 25.9 km/h 55% 0.0 mm FEW
12:55 18.2 °C 8.4 °C 994.6 hPa NW 13.7 km/h 24.1 km/h 53% 0.0 mm FEW
13:00 18.3 °C 8.6 °C 994.6 hPa WNW 16.1 km/h 25.7 km/h 53% 0.0 mm FEW
13:05 18.7 °C 8.1 °C 994.2 hPa WNW 17.2 km/h 40.7 km/h 50% 0.0 mm FEW
13:10 19.1 °C 7.8 °C 994.2 hPa West 16.4 km/h 25.9 km/h 48% 0.0 mm FEW
13:15 19.2 °C 7.3 °C 994.2 hPa WNW 16.4 km/h 22.2 km/h 46% 0.0 mm FEW
13:20 19.4 °C 6.8 °C 994.0 hPa WNW 20.1 km/h 24.1 km/h 44% 0.0 mm FEW
13:25 19.6 °C 6.7 °C 994.0 hPa WNW 20.1 km/h 29.6 km/h 43% 0.0 mm FEW
13:30 19.7 °C 6.1 °C 994.0 hPa West 19.0 km/h 29.6 km/h 41% 0.0 mm FEW
13:35 19.6 °C 6.0 °C 993.8 hPa West 19.0 km/h 26.2 km/h 41% 0.0 mm FEW
13:40 19.5 °C 5.6 °C 993.8 hPa West 14.8 km/h 22.5 km/h 40% 0.0 mm FEW
13:45 19.6 °C 3.3 °C 993.8 hPa NW 14.8 km/h 28.2 km/h 34% 0.0 mm FEW
13:50 19.6 °C 2.4 °C 994.0 hPa WNW 19.0 km/h 38.9 km/h 32% 0.0 mm FEW
13:55 19.8 °C 1.7 °C 994.0 hPa WSW 19.0 km/h 40.7 km/h 30% 0.0 mm FEW
14:00 19.7 °C 1.2 °C 994.0 hPa West 25.7 km/h 45.1 km/h 29% 0.0 mm FEW
14:05 19.7 °C 1.2 °C 994.1 hPa SW 25.1 km/h 40.7 km/h 29% 0.0 mm FEW
14:10 19.6 °C 1.6 °C 994.1 hPa SW 25.1 km/h 33.3 km/h 30% 0.0 mm FEW
14:15 19.7 °C 1.6 °C 994.1 hPa WSW 25.1 km/h 25.9 km/h 30% 0.0 mm FEW
14:20 19.8 °C 1.2 °C 994.2 hPa West 18.3 km/h 29.6 km/h 29% 0.0 mm FEW
14:25 19.8 °C 1.2 °C 994.2 hPa WSW 18.3 km/h 35.2 km/h 29% 0.0 mm FEW
14:30 19.9 °C 1.3 °C 994.2 hPa West 22.0 km/h 22.2 km/h 29% 0.0 mm FEW
14:35 20.1 °C 1.5 °C 994.0 hPa SW 22.0 km/h 24.1 km/h 29% 0.0 mm FEW
14:40 19.9 °C 1.3 °C 994.0 hPa SSW 18.3 km/h 33.3 km/h 29% 0.0 mm FEW
14:45 19.6 °C 1.6 °C 994.0 hPa WSW 18.3 km/h 37.8 km/h 30% 0.0 mm FEW
14:50 19.3 °C 1.3 °C 994.1 hPa West 23.7 km/h 40.7 km/h 30% 0.0 mm FEW
14:55 19.3 °C 1.3 °C 994.1 hPa West 23.7 km/h 37.0 km/h 30% 0.0 mm FEW
15:00 19.4 °C 1.8 °C 994.1 hPa WNW 24.1 km/h 33.8 km/h 31% 0.0 mm FEW
15:05 19.4 °C 1.8 °C 994.0 hPa West 23.7 km/h 35.2 km/h 31% 0.0 mm FEW
15:10 19.3 °C 1.7 °C 994.0 hPa WNW 20.1 km/h 40.7 km/h 31% 0.0 mm FEW
15:15 19.4 °C 1.8 °C 994.0 hPa SW 20.1 km/h 33.3 km/h 31% 0.0 mm FEW
15:20 19.3 °C 1.7 °C 994.1 hPa WNW 21.7 km/h 29.6 km/h 31% 0.0 mm FEW
15:25 19.3 °C 1.7 °C 994.1 hPa SW 21.7 km/h 37.0 km/h 31% 0.0 mm FEW
15:30 19.1 °C 2.0 °C 994.1 hPa NW 23.3 km/h 38.9 km/h 32% 0.0 mm FEW
15:35 19.1 °C 2.0 °C 993.8 hPa SW 23.3 km/h 27.4 km/h 32% 0.0 mm FEW
15:40 19.2 °C 2.1 °C 993.8 hPa WNW 22.0 km/h 25.9 km/h 32% 0.0 mm FEW
15:45 19.1 °C 1.6 °C 993.8 hPa NNW 22.0 km/h 31.5 km/h 31% 0.0 mm FEW
15:50 19.1 °C 1.6 °C 993.9 hPa WSW 19.0 km/h 40.7 km/h 31% 0.0 mm FEW
15:55 18.9 °C 1.4 °C 993.9 hPa WNW 19.0 km/h 49.2 km/h 31% 0.0 mm FEW
16:00 18.6 °C 1.6 °C 993.9 hPa West 24.1 km/h 49.9 km/h 32% 0.0 mm FEW
16:05 18.4 °C 1.8 °C 994.0 hPa West 23.7 km/h 37.0 km/h 33% 0.0 mm FEW
16:10 18.4 °C 1.8 °C 994.0 hPa WSW 24.5 km/h 39.6 km/h 33% 0.0 mm FEW
16:15 18.3 °C 1.7 °C 994.0 hPa West 24.5 km/h 38.9 km/h 33% 0.0 mm FEW
16:20 18.4 °C 0.9 °C 994.2 hPa WSW 25.1 km/h 50.0 km/h 31% 0.0 mm FEW
16:25 18.4 °C 0.0 °C 994.2 hPa SW 25.1 km/h 40.7 km/h 29% 0.0 mm FEW
16:30 18.6 °C -1.8 °C 994.2 hPa SSW 27.0 km/h 53.7 km/h 25% 0.0 mm FEW
16:35 18.4 °C -0.9 °C 994.1 hPa WSW 27.0 km/h 38.9 km/h 27% 0.0 mm FEW
16:40 18.4 °C -0.9 °C 994.1 hPa WSW 28.6 km/h 42.6 km/h 27% 0.0 mm FEW
16:45 18.4 °C -2.0 °C 994.1 hPa WSW 28.6 km/h 44.4 km/h 25% 0.0 mm FEW
16:50 18.4 °C -2.6 °C 994.2 hPa WSW 23.3 km/h 37.0 km/h 24% 0.0 mm CLR
16:55 18.4 °C -2.6 °C 994.2 hPa SW 23.3 km/h 29.6 km/h 24% 0.0 mm CLR
17:00 18.4 °C -2.6 °C 994.2 hPa WSW 20.9 km/h 41.8 km/h 24% 0.0 mm CLR
17:05 18.2 °C -2.2 °C 994.5 hPa South 20.9 km/h 37.0 km/h 25% 0.0 mm CLR
17:10 18.2 °C -2.2 °C 994.5 hPa West 23.7 km/h 38.9 km/h 25% 0.0 mm CLR
17:15 18.2 °C -1.7 °C 994.5 hPa West 23.7 km/h 42.6 km/h 26% 0.0 mm CLR
17:20 18.1 °C -1.7 °C 994.4 hPa WSW 21.7 km/h 22.2 km/h 26% 0.0 mm CLR
17:25 18.0 °C -1.3 °C 994.4 hPa West 21.7 km/h 22.2 km/h 27% 0.0 mm CLR
17:30 17.9 °C -1.4 °C 994.4 hPa WSW 15.6 km/h 29.6 km/h 27% 0.0 mm CLR
17:35 17.9 °C -1.4 °C 994.4 hPa West 15.6 km/h 16.7 km/h 27% 0.0 mm CLR
17:40 17.8 °C -1.4 °C 994.4 hPa WSW 16.1 km/h 31.5 km/h 27% 0.0 mm CLR
17:45 17.7 °C -1.1 °C 994.4 hPa NW 16.1 km/h 25.9 km/h 28% 0.0 mm CLR
17:50 17.7 °C -0.6 °C 994.6 hPa WSW 18.3 km/h 37.0 km/h 29% 0.0 mm CLR
17:55 17.3 °C 0.4 °C 994.6 hPa West 18.3 km/h 42.6 km/h 32% 0.0 mm CLR
18:00 16.9 °C 0.5 °C 994.6 hPa West 24.1 km/h 46.7 km/h 33% 0.0 mm CLR
18:05 16.6 °C 1.1 °C 995.1 hPa WNW 23.3 km/h 44.4 km/h 35% 0.0 mm CLR
18:10 16.2 °C 0.7 °C 995.1 hPa West 27.0 km/h 44.4 km/h 35% 0.0 mm CLR
18:15 16.0 °C 0.9 °C 995.1 hPa West 27.0 km/h 42.6 km/h 36% 0.0 mm CLR
18:20 15.8 °C 0.3 °C 995.0 hPa WSW 29.1 km/h 46.3 km/h 35% 0.0 mm CLR
18:25 15.8 °C 0.7 °C 995.0 hPa WSW 29.1 km/h 31.5 km/h 36% 0.0 mm CLR
18:30 15.8 °C 0.3 °C 995.0 hPa WSW 23.7 km/h 37.0 km/h 35% 0.0 mm CLR
18:35 15.7 °C 0.3 °C 994.7 hPa SW 23.7 km/h 31.5 km/h 35% 0.0 mm CLR
18:40 15.7 °C 0.3 °C 994.7 hPa SW 20.9 km/h 38.9 km/h 35% 0.0 mm CLR
18:45 15.7 °C 0.3 °C 994.7 hPa SW 20.9 km/h 24.1 km/h 35% 0.0 mm CLR
18:50 15.6 °C 0.2 °C 994.8 hPa SW 20.9 km/h 25.9 km/h 35% 0.0 mm CLR
18:55 15.6 °C 0.6 °C 994.8 hPa SW 20.9 km/h 9.3 km/h 36% 0.0 mm CLR
19:00 15.5 °C 0.4 °C 994.8 hPa SW 11.3 km/h 11.3 km/h 36% 0.0 mm CLR
19:05 15.4 °C 0.4 °C 994.7 hPa WSW 11.1 km/h 16.7 km/h 36% 0.0 mm CLR
19:10 15.3 °C 0.3 °C 994.7 hPa South 7.6 km/h 11.1 km/h 36% 0.0 mm CLR
19:15 15.3 °C 0.3 °C 994.7 hPa SSW 7.6 km/h 11.1 km/h 36% 0.0 mm CLR
19:20 15.3 °C 0.3 °C 994.8 hPa SSW 6.9 km/h 7.4 km/h 36% 0.0 mm CLR
19:25 15.2 °C 0.6 °C 994.8 hPa South 6.9 km/h 9.3 km/h 37% 0.0 mm CLR
19:30 15.1 °C 0.9 °C 994.8 hPa SSE 5.8 km/h 11.1 km/h 38% 0.0 mm CLR
19:35 14.9 °C 0.7 °C 994.9 hPa SE 5.8 km/h 7.4 km/h 38% 0.0 mm CLR
19:40 14.8 °C 0.6 °C 994.9 hPa WSW 6.4 km/h 11.1 km/h 38% 0.0 mm CLR
19:45 14.7 °C 0.5 °C 994.9 hPa WSW 6.4 km/h 11.1 km/h 38% 0.0 mm CLR
19:50 14.6 °C 0.4 °C 995.8 hPa SSW 6.9 km/h 9.3 km/h 38% 0.0 mm CLR
19:55 14.6 °C 0.4 °C 995.8 hPa SSW 6.9 km/h 11.1 km/h 38% 0.0 mm CLR
20:00 14.7 °C 0.5 °C 995.8 hPa SSW 8.0 km/h 9.7 km/h 38% 0.0 mm CLR
20:05 14.8 °C 0.2 °C 995.8 hPa WSW 7.6 km/h 13.0 km/h 37% 0.0 mm CLR
20:10 15.0 °C 0.4 °C 995.8 hPa WSW 6.9 km/h 13.0 km/h 37% 0.0 mm CLR
20:15 15.0 °C 0.4 °C 995.8 hPa SW 6.9 km/h 11.1 km/h 37% 0.0 mm CLR
20:20 15.1 °C 0.5 °C 996.0 hPa WSW 7.6 km/h 10.0 km/h 37% 0.0 mm CLR
20:25 15.3 °C 0.3 °C 996.0 hPa WSW 7.6 km/h 20.4 km/h 36% 0.0 mm CLR
20:30 15.3 °C 1.4 °C 996.0 hPa West 13.7 km/h 42.6 km/h 39% 0.0 mm CLR
20:35 15.1 °C 1.9 °C 996.4 hPa WSW 13.7 km/h 25.9 km/h 41% 0.0 mm CLR
20:40 15.0 °C 1.8 °C 996.4 hPa West 23.7 km/h 33.3 km/h 41% 0.0 mm CLR
20:45 14.9 °C 1.8 °C 996.4 hPa West 23.7 km/h 33.3 km/h 41% 0.0 mm CLR
20:50 14.9 °C 2.1 °C 996.7 hPa West 21.7 km/h 27.8 km/h 42% 0.0 mm CLR
20:55 14.9 °C 2.1 °C 996.7 hPa NW 21.7 km/h 38.9 km/h 42% 0.0 mm CLR
21:00 14.7 °C 2.6 °C 996.7 hPa West 24.1 km/h 45.1 km/h 44% 0.0 mm CLR
21:05 14.4 °C 2.6 °C 996.8 hPa WNW 23.7 km/h 33.3 km/h 45% 0.0 mm CLR
21:10 14.2 °C 2.7 °C 996.8 hPa NW 23.7 km/h 33.3 km/h 46% 0.0 mm CLR
21:15 14.1 °C 2.9 °C 996.8 hPa WSW 23.7 km/h 33.3 km/h 47% 0.0 mm CLR
21:20 13.9 °C 3.1 °C 996.8 hPa WNW 22.0 km/h 29.6 km/h 48% 0.0 mm CLR
21:25 13.7 °C 2.9 °C 996.8 hPa WNW 22.0 km/h 24.1 km/h 48% 0.0 mm CLR
21:30 13.6 °C 3.1 °C 996.8 hPa West 18.0 km/h 25.9 km/h 49% 0.0 mm CLR
21:35 13.5 °C 3.3 °C 996.9 hPa WNW 18.0 km/h 27.8 km/h 50% 0.0 mm CLR
21:40 13.3 °C 3.4 °C 996.9 hPa WNW 17.2 km/h 24.1 km/h 51% 0.0 mm CLR
21:45 13.1 °C 3.4 °C 996.9 hPa West 17.2 km/h 22.2 km/h 52% 0.0 mm CLR
21:50 13.0 °C 3.4 °C 997.3 hPa West 14.8 km/h 25.9 km/h 52% 0.0 mm CLR
21:55 13.0 °C 3.4 °C 997.3 hPa West 14.8 km/h 27.8 km/h 52% 0.0 mm CLR
22:00 13.0 °C 3.4 °C 997.3 hPa West 16.1 km/h 27.4 km/h 52% 0.0 mm CLR
22:05 13.1 °C 3.2 °C 997.3 hPa WSW 16.1 km/h 25.9 km/h 51% 0.0 mm CLR
22:10 13.0 °C 3.1 °C 997.3 hPa WSW 15.6 km/h 33.3 km/h 51% 0.0 mm CLR
22:15 13.0 °C 2.8 °C 997.3 hPa SW 15.6 km/h 38.9 km/h 50% 0.0 mm CLR
22:20 12.9 °C 2.4 °C 997.5 hPa WSW 21.7 km/h 35.2 km/h 49% 0.0 mm CLR
22:25 12.9 °C 2.2 °C 997.5 hPa WSW 21.7 km/h 29.6 km/h 48% 0.0 mm CLR
22:30 12.8 °C 2.1 °C 997.5 hPa West 21.7 km/h 33.3 km/h 48% 0.0 mm CLR
22:35 12.8 °C 2.1 °C 997.4 hPa West 21.7 km/h 35.2 km/h 48% 0.0 mm CLR
22:40 12.8 °C 2.1 °C 997.4 hPa WSW 20.9 km/h 25.9 km/h 48% 0.0 mm CLR
22:45 12.8 °C 2.1 °C 997.4 hPa WSW 20.9 km/h 25.9 km/h 48% 0.0 mm CLR
22:50 12.7 °C 1.9 °C 997.6 hPa SW 17.2 km/h 22.2 km/h 48% 0.0 mm CLR
22:55 12.7 °C 1.9 °C 997.6 hPa WSW 17.2 km/h 20.9 km/h 48% 0.0 mm CLR
23:00 12.7 °C 1.7 °C 997.6 hPa WSW 16.1 km/h 30.6 km/h 47% 0.0 mm CLR
23:05 12.7 °C 1.4 °C 997.9 hPa WSW 16.1 km/h 24.1 km/h 46% 0.0 mm CLR
23:10 12.7 °C 1.1 °C 997.9 hPa SW 16.4 km/h 27.8 km/h 45% 0.0 mm CLR
23:15 12.7 °C 1.1 °C 997.9 hPa SW 16.4 km/h 22.2 km/h 45% 0.0 mm CLR
23:20 12.6 °C 1.3 °C 998.1 hPa SW 15.6 km/h 19.8 km/h 46% 0.0 mm CLR
23:25 12.5 °C 0.9 °C 998.1 hPa SW 15.6 km/h 20.4 km/h 45% 0.0 mm CLR
23:30 12.6 °C 0.7 °C 998.1 hPa SSW 14.0 km/h 24.1 km/h 44% 0.0 mm CLR
23:35 12.7 °C 0.7 °C 998.2 hPa SW 14.0 km/h 22.2 km/h 44% 0.0 mm CLR
23:40 12.8 °C 0.2 °C 998.2 hPa SW 16.1 km/h 27.8 km/h 42% 0.0 mm CLR
23:45 12.8 °C 0.2 °C 998.2 hPa West 16.1 km/h 21.7 km/h 42% 0.0 mm CLR
23:50 12.9 °C 0.6 °C 998.2 hPa WSW 18.3 km/h 18.5 km/h 43% 0.0 mm CLR
23:55 12.9 °C 0.3 °C 998.2 hPa SSW 18.3 km/h 35.2 km/h 42% 0.0 mm CLR
Murcia-Puente Tocinos, España
Compliments of Weather Underground - 2.75 mb

La estación de MeteoMurcia.com, publica sus datos en los siguientes proyectos:

Weather Underground PWS IMURCIAP2 Meteoclimatic www.awekas.at

W3Counter
Web Analytics